Flight Track Log - Related Links

Times and Time Zones

All times are in EDT time to prevent confusion due to time zone crossing. See the DAL2033 flight status page for this flight to view local times or setup timezone preferences in your user account.

Time Position Orientation Groundspeed Altitude Reporting Facility
EDT Latitude Longitude Course Direction KTS MPH feet Rate Location/Type
Sat 03:36:05 PM 33.6500 -84.4500 North 158 182 2,200  Level Atlanta TRACON
Sat 03:37:05 PM 33.6667 -84.5167 287° West 240 276 3,300 2,050 Climbing Atlanta TRACON
Sat 03:38:00 PM 33.8155 -84.1667 North  Level FlightAware Approximate
Sat 03:38:05 PM 33.7167 -84.5833 312° West 270 311 6,300  Level Atlanta TRACON
Sat 03:39:00 PM 33.9084 -84.2418 320° Northwest  Level FlightAware Approximate
Sat 03:39:44 PM 33.8350 -84.5539 12° North 290 334 10,400  Level Atlanta Center
Sat 03:40:00 PM 34.0164 -84.2667 North  Level FlightAware Approximate
Sat 03:41:00 PM 34.1318 -84.2667 North  Level FlightAware Approximate
Sat 03:41:44 PM 34.0044 -84.4522 26° Northeast 340 391 12,900  Level Atlanta Center
Sat 03:42:44 PM 34.1111 -84.3875 27° Northeast 380 437 15,300 2,150 Climbing Atlanta Center
Sat 03:43:44 PM 34.2114 -84.3278 26° Northeast 422 486 17,200 2,250 Climbing Atlanta Center
Sat 03:44:44 PM 34.3242 -84.2753 21° North 428 493 19,800 2,700 Climbing Atlanta Center
Sat 03:45:44 PM 34.4431 -84.2453 12° North 412 474 22,600 2,300 Climbing Atlanta Center
Sat 03:46:44 PM 34.5517 -84.2203 11° North 396 456 24,400 1,700 Climbing Atlanta Center
Sat 03:47:44 PM 34.6561 -84.1953 11° North 384 442 26,000 1,100 Climbing Atlanta Center
Sat 03:48:44 PM 34.7522 -84.1753 10° North 384 442 26,600 750 Climbing Atlanta Center
Sat 03:49:44 PM 34.8647 -84.1475 11° North 397 457 27,500 1,150 Climbing Atlanta Center
Sat 03:50:44 PM 34.9817 -84.1200 11° North 410 472 28,900 900 Climbing Atlanta Center
Sat 03:51:44 PM 35.0964 -84.0922 11° North 410 472 29,300 800 Climbing Atlanta Center
Sat 03:52:44 PM 35.2092 -84.0642 11° North 410 472 30,500 1,100 Climbing Atlanta Center
Sat 03:53:44 PM 35.3219 -84.0361 11° North 410 472 31,500 1,050 Climbing Atlanta Center
Sat 03:54:44 PM 35.4325 -84.0108 11° North 410 472 32,600 750 Climbing Atlanta Center
Sat 03:55:44 PM 35.5408 -83.9825 12° North 410 472 33,000 200 Climbing Atlanta Center
Sat 03:56:44 PM 35.6639 -83.9519 11° North 410 472 33,000  Level Atlanta Center
Sat 03:57:44 PM 35.7744 -83.9261 11° North 410 472 33,000  Level Atlanta Center
Sat 03:58:44 PM 35.8850 -83.9003 11° North 410 472 33,000  Level Atlanta Center
Sat 03:59:44 PM 35.9892 -83.8411 25° Northeast 410 472 33,000  Level Atlanta Center
Sat 04:00:44 PM 36.0914 -83.7767 27° Northeast 405 466 33,000  Level Atlanta Center
Sat 04:02:06 PM 36.2169 -83.6950 28° Northeast 411 473 33,000  Level Indianapolis Center
Sat 04:03:08 PM 36.3386 -83.6183 27° Northeast 410 472 33,000  Level Indianapolis Center
Sat 04:04:09 PM 36.4400 -83.5525 28° Northeast 411 473 33,000  Level Indianapolis Center
Sat 04:05:11 PM 36.5356 -83.4942 26° Northeast 406 467 33,000  Level Indianapolis Center
Sat 04:06:12 PM 36.6356 -83.4272 28° Northeast 404 465 33,000  Level Indianapolis Center
Sat 04:07:14 PM 36.7275 -83.3419 37° Northeast 408 470 33,000  Level Indianapolis Center
Sat 04:08:15 PM 36.8206 -83.2550 37° Northeast 414 476 33,000  Level Indianapolis Center
Sat 04:09:17 PM 36.9133 -83.1667 37° Northeast 414 476 33,000  Level Indianapolis Center
Sat 04:10:18 PM 37.0228 -83.0656 36° Northeast 412 474 33,000  Level Indianapolis Center
Sat 04:11:20 PM 37.1158 -82.9756 38° Northeast 415 478 33,000  Level Indianapolis Center
Sat 04:12:21 PM 37.2072 -82.8869 38° Northeast 410 472 33,000  Level Indianapolis Center
Sat 04:13:22 PM 37.2989 -82.7994 37° Northeast 410 472 33,000  Level Indianapolis Center
Sat 04:14:24 PM 37.3914 -82.7131 37° Northeast 411 473 33,000  Level Indianapolis Center
Sat 04:15:25 PM 37.4822 -82.6247 38° Northeast 410 472 33,000  Level Indianapolis Center
Sat 04:16:27 PM 37.5736 -82.5356 38° Northeast 412 474 33,000  Level Indianapolis Center
Sat 04:17:28 PM 37.6639 -82.4472 38° Northeast 410 472 33,000  Level Indianapolis Center
Sat 04:18:30 PM 37.7556 -82.3583 37° Northeast 413 475 33,000  Level Indianapolis Center
Sat 04:19:31 PM 37.8492 -82.2681 37° Northeast 419 482 33,000  Level Indianapolis Center
Sat 04:20:32 PM 37.9439 -82.1733 38° Northeast 430 495 33,000  Level Indianapolis Center
Sat 04:21:34 PM 38.0425 -82.0775 37° Northeast 435 501 33,000  Level Indianapolis Center
Sat 04:22:35 PM 38.1369 -81.9825 38° Northeast 434 499 33,000  Level Indianapolis Center
Sat 04:23:37 PM 38.2325 -81.8886 38° Northeast 434 499 33,000  Level Indianapolis Center
Sat 04:24:38 PM 38.3469 -81.7725 38° Northeast 438 504 33,000  Level Indianapolis Center
Sat 04:25:40 PM 38.4311 -81.6547 48° Northeast 448 516 33,000  Level Indianapolis Center
Sat 04:26:41 PM 38.5122 -81.5381 48° Northeast 446 513 33,000  Level Indianapolis Center
Sat 04:27:42 PM 38.5931 -81.4231 48° Northeast 444 511 33,000  Level Indianapolis Center
Sat 04:28:44 PM 38.6722 -81.3086 48° Northeast 439 505 33,000  Level Indianapolis Center
Sat 04:29:45 PM 38.7522 -81.1942 48° Northeast 436 502 33,000  Level Indianapolis Center
Sat 04:30:47 PM 38.8475 -81.0553 49° Northeast 434 499 33,000  Level Indianapolis Center
Sat 04:31:48 PM 38.9275 -80.9403 48° Northeast 433 498 33,000  Level Indianapolis Center
Sat 04:32:49 PM 39.0072 -80.8217 49° Northeast 438 504 33,000  Level Indianapolis Center
Sat 04:33:51 PM 39.0900 -80.7072 47° Northeast 435 501 33,000  Level Indianapolis Center
Sat 04:34:52 PM 39.1722 -80.5922 47° Northeast 436 502 33,000  Level Indianapolis Center
Sat 04:35:54 PM 39.2544 -80.4778 47° Northeast 436 502 33,000  Level Indianapolis Center
Sat 04:36:55 PM 39.3356 -80.3633 47° Northeast 433 498 33,000  Level Indianapolis Center
Sat 04:37:57 PM 39.4169 -80.2494 47° Northeast 430 495 33,000  Level Indianapolis Center
Sat 04:38:58 PM 39.4964 -80.1356 48° Northeast 428 493 33,000  Level Indianapolis Center
Sat 04:40:00 PM 39.5925 -79.9964 48° Northeast 431 496 33,000  Level Indianapolis Center
Sat 04:41:01 PM 39.6719 -79.8794 49° Northeast 431 496 33,000  Level Indianapolis Center
Sat 04:42:02 PM 39.7522 -79.7628 48° Northeast 433 498 33,000  Level Indianapolis Center
Sat 04:43:04 PM 39.8319 -79.6442 49° Northeast 436 502 33,000  Level Indianapolis Center
Sat 04:44:00 PM 39.9122 -79.5303 47° Northeast 427 491 33,000  Level Cleveland Center
Sat 04:45:00 PM 39.9903 -79.4125 49° Northeast 427 491 33,000  Level Cleveland Center
Sat 04:46:00 PM 40.0519 -79.3219 48° Northeast 427 491 33,000  Level Cleveland Center
Sat 04:47:00 PM 40.1339 -79.1956 50° Northeast 422 486 33,000  Level Cleveland Center
Sat 04:48:00 PM 40.2114 -79.0769 49° Northeast 417 480 33,000  Level Cleveland Center
Sat 04:49:00 PM 40.2892 -78.9608 49° Northeast 417 480 33,000  Level Cleveland Center
Sat 04:50:00 PM 40.3747 -78.8308 49° Northeast 417 480 33,000  Level Cleveland Center
Sat 04:51:00 PM 40.4500 -78.7142 50° Northeast 412 474 33,000  Level Cleveland Center
Sat 04:52:00 PM 40.5253 -78.5944 50° Northeast 412 474 33,000  Level Cleveland Center
Sat 04:53:42 PM 40.6461 -78.4111 49° Northeast 416 479 33,000  Level New York Center
Sat 04:54:43 PM 40.7244 -78.2939 49° Northeast 416 479 33,000  Level New York Center
Sat 04:55:41 PM 40.7986 -78.1731 51° Northeast 422 486 33,000  Level New York Center
Sat 04:57:00 PM 40.8878 -78.0220 51° Northeast  Level FlightAware Approximate
Sat 04:57:41 PM 40.9533 -77.9289 51° Northeast 427 491 33,000  Level New York Center
Sat 04:58:41 PM 41.0278 -77.8017 52° Northeast 427 491 33,000  Level New York Center
Sat 04:59:42 PM 41.1017 -77.6772 52° Northeast 427 491 33,000  Level New York Center
Sat 05:00:42 PM 41.1847 -77.5367 52° Northeast 427 491 33,000 -100 Level New York Center
Sat 05:01:42 PM 41.2564 -77.4114 53° Northeast 432 497 32,800 -807 Descending New York Center
Sat 05:02:41 PM 41.3278 -77.2886 52° Northeast 426 490 31,400 -1,377 Descending New York Center
Sat 05:03:44 PM 41.3992 -77.1653 52° Northeast 426 490 30,000 -1,200 Descending New York Center
Sat 05:04:41 PM 41.4589 -77.0631 52° Northeast 426 490 29,000 -508 Descending New York Center
Sat 05:05:42 PM 41.5483 -76.9053 53° Northeast 431 496 29,000  Level New York Center
Sat 05:06:42 PM 41.6217 -76.7731 53° Northeast 431 496 29,000  Level New York Center
Sat 05:07:42 PM 41.6833 -76.6675 52° Northeast 436 502 29,000  Level New York Center
Sat 05:08:43 PM 41.7631 -76.5244 53° Northeast 436 502 29,000  Level New York Center
Sat 05:10:41 PM 41.9150 -76.2544 53° Northeast 446 513 29,000 -337 Level Boston Center
Sat 05:11:41 PM 41.9883 -76.1217 53° Northeast 446 513 28,000 -1,400 Descending Boston Center
Sat 05:12:41 PM 42.0458 -76.0189 53° Northeast 439 505 26,200 -2,000 Descending Boston Center
Sat 05:13:41 PM 42.1342 -75.8586 53° Northeast 439 505 24,000 -1,100 Descending Boston Center
Sat 05:14:41 PM 42.2069 -75.7225 54° Northeast 445 512 24,000  Level Boston Center
Sat 05:15:41 PM 42.2775 -75.5914 54° Northeast 440 506 24,000 -500 Level Boston Center
Sat 05:16:41 PM 42.3311 -75.4539 62° Northeast 427 491 23,000 -1,050 Descending Boston Center
Sat 05:17:41 PM 42.3769 -75.2986 68° East 421 484 21,900 -1,700 Descending Boston Center
Sat 05:18:41 PM 42.4203 -75.1486 69° East 426 490 19,600 -2,300 Descending Boston Center
Sat 05:19:41 PM 42.4611 -75.0039 69° East 426 490 17,300 -2,400 Descending Boston Center
Sat 05:20:41 PM 42.5036 -74.8733 66° East 403 464 14,800 -2,455 Descending Boston Center
Sat 05:21:09 PM 42.5239 -74.8036 68° East 371 427 13,700 -2,900 Descending Boston Center
Sat 05:21:41 PM 42.5461 -74.7286 68° East 376 433 11,900 -2,418 Descending Boston Center
Sat 05:22:16 PM 42.5664 -74.6558 69° East 362 417 11,000 -800 Descending Boston Center
Sat 05:22:41 PM 42.5842 -74.6031 65° Northeast 369 425 11,100 -100 Climbing Boston Center
Sat 05:23:16 PM 42.6042 -74.5331 69° East 351 404 10,900  Descending Boston Center
Sat 05:23:41 PM 42.5947 -74.4792 103° East 346 398 11,100 -590 Climbing Boston Center
Sat 05:24:17 PM 42.5853 -74.4169 102° East 301 346 10,300 -917 Descending Boston Center
Sat 05:24:53 PM 42.5800 -74.3717 99° East 304 350 10,000 -1,279 Descending Boston Center
Sat 05:25:18 PM 42.5664 -74.3119 107° East 280 322 9,000 -2,000 Descending Boston Center
Sat 05:25:53 PM 42.5528 -74.2467 106° East 289 333 8,000 -1,800 Descending Boston Center
Sat 05:26:18 PM 42.5450 -74.2097 106° East 282 325 7,200 -1,333 Descending Boston Center
Sat 05:27:05 PM 42.5314 -74.1558 109° East 283 326 6,400 -1,881 Descending Boston Center
Sat 05:27:25 PM 42.5197 -74.0936 104° East 288 331 5,100 -2,300 Descending Boston Center
Sat 05:28:05 PM 42.5144 -74.0286 96° East 283 326 4,100 -1,100 Descending Boston Center
Sat 05:28:25 PM 42.5150 -73.9892 89° East 268 308 4,000 -1,100 Descending Boston Center
Sat 05:29:05 PM 42.5178 -73.9189 87° East 271 312 3,000 -1,091 Descending Boston Center
Sat 05:29:20 PM 42.5161 -73.8964 96° East 264 304 3,000 -300 Level Boston Center
Sat 05:30:05 PM 42.5292 -73.8431 72° East 249 287 2,700 -295 Descending Boston Center
Sat 05:30:21 PM 42.5378 -73.8208 62° Northeast 204 235 2,700 -300 Level Boston Center
Sat 05:31:05 PM 42.5672 -73.7989 29° Northeast 181 208 2,400 -409 Descending Boston Center

Login

Don't have an account? Register now (free) for customized features, flight alerts, and more!